Time;durP1;ratioP1;P1;durP2;ratioP2;P2;SDS_P1;SDS_P2;PMS_P1;PMS_P2;Temp;Humidity;BMP_temperature;BMP_pressure;BME280_temperature;BME280_humidity;BME280_pressure;Samples;Min_cycle;Max_cycle;Signal;HPM_P1;HPM_P2
2024/04/06 00:01:45;;;;;;;2.40;0.70;;;;;;;13.49;100.00;100789.69;5035256;28;20523;-70
2024/04/06 00:04:12;;;;;;;2.10;0.50;;;;;;;13.48;100.00;100794.34;5035106;28;20470;-70
2024/04/06 00:06:38;;;;;;;2.10;0.40;;;;;;;13.50;100.00;100786.69;5035447;28;20442;-71
2024/04/06 00:09:04;;;;;;;2.20;0.53;;;;;;;13.53;100.00;100794.19;5021476;28;20527;-71
2024/04/06 00:11:30;;;;;;;2.57;0.87;;;;;;;13.56;100.00;100790.03;5015380;28;21018;-71
2024/04/06 00:13:58;;;;;;;2.13;0.50;;;;;;;13.55;100.00;100797.41;5015768;28;20464;-71
2024/04/06 00:16:24;;;;;;;2.30;0.70;;;;;;;13.61;100.00;100795.34;5016056;28;20287;-71
2024/04/06 00:18:50;;;;;;;2.80;1.20;;;;;;;13.67;100.00;100793.25;5023002;28;21022;-71
2024/04/06 00:21:16;;;;;;;3.87;1.10;;;;;;;13.66;100.00;100788.94;5035184;28;20200;-71
2024/04/06 00:23:42;;;;;;;2.60;0.90;;;;;;;13.65;100.00;100793.59;5034922;28;20469;-71
2024/04/06 00:26:08;;;;;;;2.30;0.70;;;;;;;13.62;100.00;100789.56;5050665;28;20250;-71
2024/04/06 00:28:35;;;;;;;2.30;0.70;;;;;;;13.61;100.00;100787.19;5045939;28;20945;-71
2024/04/06 00:31:02;;;;;;;2.83;1.03;;;;;;;13.59;100.00;100794.84;5014979;28;20232;-71
2024/04/06 00:33:28;;;;;;;2.30;0.60;;;;;;;13.54;100.00;100792.25;5015233;28;20470;-71
2024/04/06 00:35:54;;;;;;;2.30;0.70;;;;;;;13.49;100.00;100789.69;5015304;28;20531;-72
2024/04/06 00:38:20;;;;;;;2.57;0.70;;;;;;;13.42;100.00;100795.59;5027532;28;20542;-70
2024/04/06 00:40:46;;;;;;;2.20;0.50;;;;;;;13.36;100.00;100792.22;5034652;28;20640;-71
2024/04/06 00:43:13;;;;;;;2.70;0.70;;;;;;;13.30;100.00;100793.47;5034804;28;20546;-70
2024/04/06 00:45:39;;;;;;;3.03;0.60;;;;;;;13.26;100.00;100791.69;5034595;28;20573;-70
2024/04/06 00:48:09;;;;;;;2.37;0.60;;;;;;;13.17;100.00;100799.78;5034798;28;20545;-70
2024/04/06 00:50:35;;;;;;;2.10;0.40;;;;;;;13.09;100.00;100804.06;5034709;28;20747;-70
2024/04/06 00:53:02;;;;;;;2.30;0.40;;;;;;;13.02;100.00;100803.72;5034469;28;20554;-70
2024/04/06 00:55:27;;;;;;;2.10;0.50;;;;;;;12.95;100.00;100797.13;5019831;28;20435;-70
2024/04/06 00:57:54;;;;;;;2.20;0.47;;;;;;;12.84;100.00;100802.81;5014922;28;20498;-71
2024/04/06 01:00:20;;;;;;;2.20;0.50;;;;;;;12.83;100.00;100808.56;5014510;28;20240;-71
2024/04/06 01:02:46;;;;;;;2.13;0.47;;;;;;;12.78;100.00;100797.81;5025207;28;20493;-71
2024/04/06 01:05:13;;;;;;;2.10;0.40;;;;;;;12.76;100.00;100809.00;5034680;28;20208;-71
2024/04/06 01:07:44;;;;;;;2.30;0.53;;;;;;;12.73;100.00;100811.53;5033285;28;20994;-71
2024/04/06 01:10:10;;;;;;;2.40;0.73;;;;;;;12.70;100.00;100818.38;5034165;28;20471;-71
2024/04/06 01:12:36;;;;;;;2.10;0.50;;;;;;;12.66;100.00;100816.59;5034090;28;20474;-71
2024/04/06 01:15:02;;;;;;;2.30;0.50;;;;;;;12.62;100.00;100811.78;5034008;28;20669;-71
2024/04/06 01:17:29;;;;;;;2.20;0.60;;;;;;;12.59;100.00;100827.91;5033928;28;20455;-71
2024/04/06 01:19:55;;;;;;;2.10;0.40;;;;;;;12.58;100.00;100831.75;5033548;28;20797;-71
2024/04/06 01:22:23;;;;;;;2.20;0.50;;;;;;;12.56;100.00;100826.59;5033979;28;20542;-72
2024/04/06 01:24:50;;;;;;;2.10;0.50;;;;;;;12.56;100.00;100828.50;5035185;28;20291;-71
2024/04/06 01:27:17;;;;;;;2.10;0.47;;;;;;;12.53;100.00;100838.09;5034343;28;20534;-71
2024/04/06 01:29:42;;;;;;;2.60;0.70;;;;;;;12.53;100.00;100843.53;5033959;28;20443;-71
2024/04/06 01:32:09;;;;;;;2.10;0.40;;;;;;;12.55;100.00;100845.94;5033972;28;20537;-71
2024/04/06 01:34:34;;;;;;;2.40;0.70;;;;;;;12.55;100.00;100845.94;5033556;28;20292;-71
2024/04/06 01:37:01;;;;;;;2.20;0.60;;;;;;;12.56;100.00;100855.69;5033662;28;20449;-71
2024/04/06 01:39:27;;;;;;;2.20;0.40;;;;;;;12.54;100.00;100856.00;5018113;28;20284;-71
2024/04/06 01:41:55;;;;;;;2.80;1.00;;;;;;;12.55;100.00;100856.78;5013875;28;21007;-71
2024/04/06 01:44:20;;;;;;;2.50;0.70;;;;;;;12.57;100.00;100865.44;5014122;28;20763;-71
2024/04/06 01:46:47;;;;;;;2.30;0.70;;;;;;;12.59;100.00;100865.94;5052387;22;20502;-68
2024/04/06 01:49:13;;;;;;;2.30;0.80;;;;;;;12.61;100.00;100874.59;5053566;28;20212;-68
2024/04/06 01:51:40;;;;;;;2.30;0.53;;;;;;;12.68;100.00;100874.97;5054213;28;20486;-68
2024/04/06 01:54:05;;;;;;;2.10;0.40;;;;;;;12.70;100.00;100871.94;5053944;28;20318;-68
2024/04/06 01:56:32;;;;;;;2.10;0.50;;;;;;;12.70;100.00;100872.72;5053492;28;20525;-68
2024/04/06 01:58:59;;;;;;;2.20;0.60;;;;;;;12.70;100.00;100878.16;5053268;28;20218;-68
2024/04/06 02:01:26;;;;;;;2.20;0.60;;;;;;;12.70;100.00;100878.16;5053800;28;20434;-68
2024/04/06 02:03:51;;;;;;;2.20;0.50;;;;;;;12.70;100.00;100882.81;5053614;28;20466;-68
2024/04/06 02:06:19;;;;;;;2.00;0.40;;;;;;;12.67;100.00;100878.81;5053428;28;20999;-68
2024/04/06 02:08:44;;;;;;;2.20;0.57;;;;;;;12.65;100.00;100881.00;5053481;28;20230;-68
2024/04/06 02:11:11;;;;;;;2.70;1.03;;;;;;;12.61;100.00;100882.72;5053356;28;20478;-68
2024/04/06 02:13:37;;;;;;;2.20;0.40;;;;;;;12.58;100.00;100886.09;5053642;28;20671;-68
2024/04/06 02:16:05;;;;;;;2.40;0.90;;;;;;;12.54;100.00;100879.66;5036969;28;20864;-68
2024/04/06 02:18:31;;;;;;;2.10;0.50;;;;;;;12.51;100.00;100881.06;5035249;28;20668;-68
2024/04/06 02:20:58;;;;;;;2.40;0.80;;;;;;;12.49;100.00;100871.63;5054911;28;20438;-68
2024/04/06 02:23:23;;;;;;;2.10;0.40;;;;;;;12.51;100.00;100870.19;5056711;28;20726;-68
2024/04/06 02:25:50;;;;;;;2.37;0.77;;;;;;;12.51;100.00;100870.19;5057443;28;20450;-67
2024/04/06 02:28:16;;;;;;;2.10;0.50;;;;;;;12.53;100.00;100873.41;5057000;28;20191;-68
2024/04/06 02:30:42;;;;;;;2.57;0.60;;;;;;;12.55;100.00;100878.53;5046306;28;20568;-68
2024/04/06 02:33:09;;;;;;;2.07;0.40;;;;;;;12.55;100.00;100873.09;5056990;28;20744;-68
2024/04/06 02:35:36;;;;;;;2.33;0.77;;;;;;;12.53;100.00;100878.06;5057228;28;20864;-68
2024/04/06 02:38:02;;;;;;;2.20;0.50;;;;;;;12.53;100.00;100872.63;5056684;28;20470;-68
2024/04/06 02:40:28;;;;;;;2.30;0.60;;;;;;;12.53;100.00;100872.63;5057041;28;20877;-68
2024/04/06 02:42:54;;;;;;;2.30;0.70;;;;;;;12.51;100.00;100869.38;5056800;28;20641;-68
2024/04/06 02:45:20;;;;;;;2.20;0.60;;;;;;;12.53;100.00;100873.41;5056833;28;21017;-68
2024/04/06 02:47:46;;;;;;;2.10;0.50;;;;;;;12.55;100.00;100879.34;5056153;28;20298;-68
2024/04/06 02:50:14;;;;;;;8.60;0.83;;;;;;;12.59;100.00;100872.19;5055878;28;20989;-68
2024/04/06 02:52:40;;;;;;;2.20;0.53;;;;;;;12.68;100.00;100866.81;5056591;28;20251;-68
2024/04/06 02:55:07;;;;;;;2.37;0.60;;;;;;;12.73;100.00;100869.41;5055446;28;20461;-68
2024/04/06 02:57:33;;;;;;;2.20;0.57;;;;;;;12.74;100.00;100879.16;5056088;28;20462;-68
2024/04/06 02:59:58;;;;;;;2.73;0.90;;;;;;;12.74;100.00;100878.38;5054851;28;20450;-68
2024/04/06 03:02:25;;;;;;;2.07;0.47;;;;;;;12.78;100.00;100879.34;5055525;28;20593;-68
2024/04/06 03:04:51;;;;;;;2.30;0.67;;;;;;;12.83;100.00;100881.94;5055725;28;20205;-68
2024/04/06 03:07:19;;;;;;;2.40;0.63;;;;;;;12.84;100.00;100894.44;5055355;28;20508;-68
2024/04/06 03:09:46;;;;;;;2.30;0.70;;;;;;;12.90;100.00;100897.84;5055621;28;20204;-68
2024/04/06 03:12:13;;;;;;;2.63;0.83;;;;;;;12.94;100.00;100907.00;5055674;28;20490;-68
2024/04/06 03:14:39;;;;;;;2.07;0.40;;;;;;;12.95;100.00;100895.00;5054279;28;20941;-69
2024/04/06 03:17:06;;;;;;;2.30;0.50;;;;;;;12.97;100.00;100895.47;5055509;28;20499;-69
2024/04/06 03:19:31;;;;;;;2.00;0.30;;;;;;;12.99;100.00;100894.06;5053875;28;20206;-69
2024/04/06 03:21:58;;;;;;;2.13;0.53;;;;;;;13.02;100.00;100900.81;5052146;28;20527;-68
2024/04/06 03:24:25;;;;;;;2.23;0.50;;;;;;;12.95;100.00;100905.88;5054063;28;20207;-68
2024/04/06 03:26:52;;;;;;;2.03;0.40;;;;;;;12.92;100.00;100901.84;5053061;28;20519;-68
2024/04/06 03:29:18;;;;;;;2.20;0.50;;;;;;;12.93;100.00;100905.41;5054832;28;20938;-66
2024/04/06 03:31:45;;;;;;;2.10;0.50;;;;;;;12.94;100.00;100902.34;5054900;28;20489;-67
2024/04/06 03:34:10;;;;;;;2.00;0.30;;;;;;;12.99;100.00;100896.00;5054981;28;20480;-66
2024/04/06 03:36:37;;;;;;;2.07;0.40;;;;;;;12.95;100.00;100898.50;5054904;28;20553;-66
2024/04/06 03:39:04;;;;;;;2.13;0.50;;;;;;;12.94;100.00;100902.34;5045038;28;20232;-66
2024/04/06 03:41:32;;;;;;;2.30;0.50;;;;;;;12.93;100.00;100900.75;5054976;28;20443;-66
2024/04/06 03:43:59;;;;;;;2.77;0.60;;;;;;;12.95;100.00;100912.09;5047884;28;20479;-66
2024/04/06 03:46:29;;;;;;;2.23;0.50;;;;;;;12.94;100.00;100898.84;5054308;28;20524;-66
2024/04/06 03:48:55;;;;;;;2.10;0.40;;;;;;;12.95;100.00;100897.72;5055517;28;20501;-66
2024/04/06 03:51:21;;;;;;;2.10;0.40;;;;;;;12.94;100.00;100896.91;5054842;28;20470;-66
2024/04/06 03:53:48;;;;;;;2.40;0.60;;;;;;;12.97;100.00;100898.19;5055027;28;20536;-66
2024/04/06 03:56:13;;;;;;;2.90;0.50;;;;;;;12.99;100.00;100901.44;5055402;28;20702;-66
2024/04/06 03:58:41;;;;;;;2.23;0.67;;;;;;;12.99;100.00;100891.34;5053673;28;20494;-67
2024/04/06 04:01:07;;;;;;;2.10;0.40;;;;;;;12.98;100.00;100889.75;5044117;28;20204;-66
2024/04/06 04:03:34;;;;;;;2.00;0.30;;;;;;;13.01;100.00;100889.09;5049594;28;20493;-67
2024/04/06 04:06:00;;;;;;;2.30;0.70;;;;;;;13.01;100.00;100882.88;5053476;28;20204;-67
2024/04/06 04:08:26;;;;;;;2.20;0.70;;;;;;;12.96;100.00;100886.53;5054890;28;20530;-67
2024/04/06 04:10:53;;;;;;;2.20;0.57;;;;;;;12.91;100.00;100886.66;5054277;28;20505;-67
2024/04/06 04:13:21;;;;;;;2.20;0.50;;;;;;;12.85;100.00;100893.34;5055746;28;20464;-67
2024/04/06 04:15:48;;;;;;;2.20;0.53;;;;;;;12.81;100.00;100904.00;5037771;28;20498;-67
2024/04/06 04:18:16;;;;;;;2.03;0.37;;;;;;;12.76;100.00;100893.25;5055464;28;20800;-71
2024/04/06 04:20:41;;;;;;;2.07;0.43;;;;;;;12.73;100.00;100891.16;5054095;28;20508;-68
2024/04/06 04:23:08;;;;;;;2.50;0.60;;;;;;;12.72;100.00;100905.88;5054216;28;20478;-68
2024/04/06 04:25:34;;;;;;;2.00;0.30;;;;;;;12.64;100.00;100912.03;5054906;28;20288;-68
2024/04/06 04:28:01;;;;;;;2.40;0.53;;;;;;;12.60;100.00;100911.03;5052495;28;20533;-68
2024/04/06 04:30:27;;;;;;;2.10;0.50;;;;;;;12.55;100.00;100895.63;5054612;28;20291;-68
2024/04/06 04:32:55;;;;;;;2.20;0.57;;;;;;;12.52;100.00;100898.16;5054320;28;20478;-68
2024/04/06 04:35:21;;;;;;;2.10;0.60;;;;;;;12.45;100.00;100897.78;5053638;28;20579;-68
2024/04/06 04:37:48;;;;;;;2.10;0.50;;;;;;;12.43;100.00;100895.38;5050859;28;20946;-68
2024/04/06 04:40:15;;;;;;;2.77;0.83;;;;;;;12.42;100.00;100895.69;5053899;28;20214;-68
2024/04/06 04:42:41;;;;;;;3.70;0.97;;;;;;;12.40;100.00;100895.19;5053854;28;20565;-67
2024/04/06 04:45:09;;;;;;;2.03;0.30;;;;;;;12.31;100.00;100898.63;5053753;28;20537;-67
2024/04/06 04:47:35;;;;;;;2.10;0.40;;;;;;;12.24;100.00;100890.06;5052263;28;20294;-66
2024/04/06 04:50:04;;;;;;;2.20;0.57;;;;;;;12.19;100.00;100892.09;5052476;28;20892;-66
2024/04/06 04:52:30;;;;;;;4.10;0.83;;;;;;;12.11;100.00;100893.63;5052598;28;20223;-66
2024/04/06 04:54:57;;;;;;;2.10;0.50;;;;;;;12.04;100.00;100898.63;5053801;28;20458;-66
2024/04/06 04:57:22;;;;;;;2.30;0.60;;;;;;;12.05;100.00;100908.41;5053529;28;20964;-66
2024/04/06 04:59:49;;;;;;;3.33;0.70;;;;;;;12.05;100.00;100911.13;5052302;28;20553;-65
2024/04/06 05:02:15;;;;;;;2.10;0.40;;;;;;;12.07;100.00;100914.34;5053886;28;20208;-66
2024/04/06 05:04:42;;;;;;;2.10;0.50;;;;;;;12.08;100.00;100911.31;5053620;28;20541;-66
2024/04/06 05:07:09;;;;;;;2.07;0.43;;;;;;;12.12;100.00;100911.50;5054095;28;20517;-66
2024/04/06 05:09:36;;;;;;;2.20;0.60;;;;;;;12.17;100.00;100919.56;5051375;28;20800;-67
2024/04/06 05:12:02;;;;;;;2.07;0.40;;;;;;;12.35;100.00;100915.94;5046905;28;20487;-66
2024/04/06 05:14:29;;;;;;;2.43;0.80;;;;;;;12.49;100.00;100920.53;5043778;28;20946;-66
2024/04/06 05:16:55;;;;;;;2.83;1.40;;;;;;;12.64;100.00;100917.47;5050466;28;20541;-67
2024/04/06 05:19:21;;;;;;;2.53;1.10;;;;;;;12.76;100.00;100920.44;5051343;28;20533;-67
2024/04/06 05:21:47;;;;;;;2.40;0.70;;;;;;;12.91;100.00;100932.88;5052856;28;20206;-67
2024/04/06 05:24:15;;;;;;;6.83;1.67;;;;;;;13.03;100.00;100941.28;5051726;28;20556;-67
2024/04/06 05:26:41;;;;;;;3.47;1.30;;;;;;;13.11;100.00;100943.28;5053697;28;20227;-67
2024/04/06 05:29:08;;;;;;;4.47;1.20;;;;;;;13.19;100.00;100947.16;5053324;28;20446;-68
2024/04/06 05:31:34;;;;;;;3.47;1.20;;;;;;;13.26;100.00;100950.28;5053682;28;20492;-68
2024/04/06 05:34:01;;;;;;;2.50;0.73;;;;;;;13.34;100.00;100951.47;5053920;28;20556;-68
2024/04/06 05:36:26;;;;;;;4.20;1.23;;;;;;;13.42;100.00;100952.63;5052670;28;20200;-68
2024/04/06 05:38:53;;;;;;;2.83;0.90;;;;;;;13.48;100.00;100959.53;5051143;28;20549;-68
2024/04/06 05:41:22;;;;;;;2.20;0.60;;;;;;;13.53;100.00;100962.13;5047624;28;20201;-68
2024/04/06 05:43:48;;;;;;;4.20;0.77;;;;;;;13.59;100.00;100955.44;5033777;28;20475;-68
2024/04/06 05:46:14;;;;;;;2.80;0.90;;;;;;;13.63;100.00;100953.69;5036994;28;21036;-68
2024/04/06 05:48:41;;;;;;;3.03;1.03;;;;;;;13.69;100.00;100959.81;5053485;28;20529;-68
2024/04/06 05:51:06;;;;;;;2.60;1.00;;;;;;;13.71;100.00;100960.31;5051057;28;20228;-68
2024/04/06 05:53:33;;;;;;;2.90;1.10;;;;;;;13.75;100.00;100970.25;5051794;28;20477;-68
2024/04/06 05:55:58;;;;;;;2.60;0.80;;;;;;;13.79;100.00;100973.97;5052603;28;20242;-68
2024/04/06 05:58:26;;;;;;;3.70;2.10;;;;;;;13.81;100.00;100965.47;5048464;28;20877;-68
2024/04/06 06:00:52;;;;;;;2.77;1.10;;;;;;;13.80;100.00;100963.88;5052520;28;20235;-68
2024/04/06 06:03:19;;;;;;;3.80;0.90;;;;;;;13.84;100.00;100976.53;5053577;28;21005;-68
2024/04/06 06:05:44;;;;;;;2.50;0.80;;;;;;;13.85;100.00;100971.91;5052774;28;20203;-68
2024/04/06 06:08:11;;;;;;;2.50;0.90;;;;;;;13.92;100.00;100976.91;5052196;28;20536;-68
2024/04/06 06:10:37;;;;;;;2.67;0.83;;;;;;;13.98;100.00;100976.44;5051324;28;20286;-68
2024/04/06 06:13:04;;;;;;;2.80;1.03;;;;;;;14.05;100.00;100984.97;5052473;28;20588;-68
2024/04/06 06:15:31;;;;;;;3.90;1.30;;;;;;;14.11;100.00;100980.97;5050772;28;20203;-68
2024/04/06 06:17:57;;;;;;;2.63;0.93;;;;;;;14.22;100.00;100986.97;5051303;28;20460;-68
2024/04/06 06:20:23;;;;;;;2.67;0.97;;;;;;;14.29;100.00;100984.56;5052729;28;20969;-68
2024/04/06 06:22:50;;;;;;;3.90;1.93;;;;;;;14.36;100.00;100982.19;5050902;28;20506;-69
2024/04/06 06:25:16;;;;;;;9.40;1.00;;;;;;;14.43;100.00;100986.38;5052598;28;20718;-66
2024/04/06 06:27:43;;;;;;;7.37;1.27;;;;;;;14.50;100.00;100981.28;5052248;28;20439;-66
2024/04/06 06:30:09;;;;;;;2.40;0.83;;;;;;;14.57;100.00;100981.63;5052596;28;20234;-66
2024/04/06 06:32:36;;;;;;;14.73;2.07;;;;;;;14.59;100.00;100985.63;5052642;28;20918;-67
2024/04/06 06:35:02;;;;;;;2.87;1.07;;;;;;;14.63;100.00;100985.81;5047431;28;20579;-66
2024/04/06 06:37:29;;;;;;;3.40;1.20;;;;;;;14.68;100.00;100991.09;5041226;28;20930;-66
2024/04/06 06:39:54;;;;;;;3.00;0.90;;;;;;;14.75;100.00;100985.19;5052925;28;20235;-66
2024/04/06 06:42:21;;;;;;;2.60;1.07;;;;;;;14.74;100.00;100989.84;5052037;28;20490;-66
2024/04/06 06:44:47;;;;;;;5.50;1.30;;;;;;;14.82;100.00;100996.41;5052524;28;20291;-67
2024/04/06 06:47:13;;;;;;;2.63;1.03;;;;;;;14.85;100.00;100993.84;5052495;28;20541;-68
2024/04/06 06:49:40;;;;;;;3.63;1.20;;;;;;;14.97;100.00;100992.44;5052725;28;20743;-66
2024/04/06 06:52:07;;;;;;;2.80;1.00;;;;;;;15.05;100.00;100984.25;5052208;28;20486;-66
2024/04/06 06:54:32;;;;;;;3.03;0.90;;;;;;;15.13;100.00;100985.34;5059906;28;20466;-67
2024/04/06 06:56:59;;;;;;;2.87;0.90;;;;;;;15.17;100.00;100994.50;5051646;28;20539;-67
2024/04/06 06:59:25;;;;;;;3.07;1.23;;;;;;;15.22;100.00;101010.72;5052888;28;20196;-68
2024/04/06 07:01:52;;;;;;;2.57;0.87;;;;;;;15.25;100.00;100998.34;5052990;28;20444;-68
2024/04/06 07:04:18;;;;;;;4.87;1.13;;;;;;;15.29;100.00;101005.59;5052937;28;20232;-69
2024/04/06 07:06:46;;;;;;;3.77;1.27;;;;;;;15.30;100.00;101001.72;5056630;28;20804;-69
2024/04/06 07:09:12;;;;;;;3.67;1.10;;;;;;;15.34;100.00;100997.22;5055478;28;22020;-70
2024/04/06 07:11:38;;;;;;;2.70;0.80;;;;;;;15.35;100.00;100990.63;5056621;28;20484;-68
2024/04/06 07:14:04;;;;;;;2.60;0.90;;;;;;;15.36;100.00;100992.25;5056087;28;20242;-68
2024/04/06 07:16:31;;;;;;;2.80;0.80;;;;;;;15.39;100.00;100998.97;5056401;28;20964;-66
2024/04/06 07:18:57;;;;;;;7.47;0.77;;;;;;;15.39;100.00;100997.06;5055098;28;20207;-65
2024/04/06 07:21:23;;;;;;;2.77;0.90;;;;;;;15.43;100.00;101001.88;5055599;28;20442;-66
2024/04/06 07:23:50;;;;;;;3.37;1.20;;;;;;;15.49;100.00;100995.91;5056434;28;20220;-65
2024/04/06 07:26:17;;;;;;;2.50;0.60;;;;;;;15.60;100.00;101005.38;5056189;28;20451;-65
2024/04/06 07:28:42;;;;;;;3.30;0.80;;;;;;;15.71;100.00;101002.31;5055644;28;20474;-65
2024/04/06 07:31:09;;;;;;;2.90;0.70;;;;;;;15.84;98.51;101006.78;5055566;28;20473;-65
2024/04/06 07:33:35;;;;;;;2.80;0.60;;;;;;;15.94;98.27;101009.19;5047071;28;20220;-66
2024/04/06 07:36:01;;;;;;;3.93;1.17;;;;;;;16.05;98.38;101012.34;5056109;28;20533;-66
2024/04/06 07:38:28;;;;;;;3.03;1.00;;;;;;;16.08;96.10;101017.16;5056180;28;20204;-66
2024/04/06 07:40:59;;;;;;;3.27;0.90;;;;;;;16.13;96.30;101025.19;5055873;28;20442;-66
2024/04/06 07:43:25;;;;;;;2.20;0.57;;;;;;;16.20;96.31;101024.66;5056098;28;20458;-69
2024/04/06 07:48:25;;;;;;;3.10;1.00;;;;;;;16.27;96.15;101014.81;5054253;28;20864;-70
2024/04/06 07:50:51;;;;;;;2.97;0.80;;;;;;;16.35;95.90;101016.72;5054312;28;20474;-69
2024/04/06 07:53:18;;;;;;;2.57;0.57;;;;;;;16.47;95.93;101007.00;5046862;28;20528;-69
2024/04/06 07:55:44;;;;;;;3.80;0.80;;;;;;;16.58;95.60;101003.56;5056253;28;20200;-68
2024/04/06 07:58:12;;;;;;;3.57;0.80;;;;;;;16.69;94.99;101003.16;5055891;28;20446;-68
2024/04/06 08:00:38;;;;;;;2.63;0.70;;;;;;;16.76;94.52;101003.47;5055471;28;20937;-68
2024/04/06 08:03:05;;;;;;;4.10;1.27;;;;;;;16.83;93.73;101018.25;5055222;28;20505;-68
2024/04/06 08:05:31;;;;;;;2.87;0.80;;;;;;;16.94;93.33;101037.00;5055428;28;20196;-71
2024/04/06 08:07:58;;;;;;;2.90;0.90;;;;;;;17.01;93.13;101034.53;5055308;28;20525;-68
2024/04/06 08:10:24;;;;;;;2.70;0.60;;;;;;;17.10;89.96;101046.22;5055397;28;20530;-68
2024/04/06 08:12:53;;;;;;;2.47;0.67;;;;;;;17.20;90.42;101056.75;5058653;28;20481;-69
2024/04/06 08:15:20;;;;;;;3.03;0.83;;;;;;;17.42;89.41;101061.09;5074858;28;20245;-68
2024/04/06 08:17:48;;;;;;;4.63;0.97;;;;;;;17.59;88.70;101062.88;5055409;28;20439;-68
2024/04/06 08:20:14;;;;;;;3.43;0.60;;;;;;;17.80;88.33;101066.41;5055801;28;20434;-68
2024/04/06 08:22:41;;;;;;;2.90;0.83;;;;;;;17.95;86.50;101061.44;5055944;28;20466;-70
2024/04/06 08:25:07;;;;;;;2.70;0.70;;;;;;;18.00;85.04;101050.25;5053079;28;20216;-70
2024/04/06 08:27:34;;;;;;;2.33;0.53;;;;;;;17.87;86.40;101061.16;5055408;28;20509;-70
2024/04/06 08:29:59;;;;;;;5.47;1.30;;;;;;;17.88;85.91;101046.34;5054755;28;20287;-70
2024/04/06 08:32:29;;;;;;;5.93;0.90;;;;;;;17.98;86.54;101058.03;5054626;28;20565;-70
2024/04/06 08:34:55;;;;;;;2.80;0.60;;;;;;;18.09;85.13;101062.69;5055056;28;20200;-69
2024/04/06 08:37:21;;;;;;;2.50;0.50;;;;;;;18.18;83.77;101065.34;5054230;28;20557;-70
2024/04/06 08:39:47;;;;;;;2.50;0.70;;;;;;;18.26;83.73;101061.72;5055597;28;20294;-69
2024/04/06 08:42:18;;;;;;;2.70;0.60;;;;;;;18.34;83.85;101065.50;5054970;28;20521;-70
2024/04/06 08:44:44;;;;;;;3.27;0.70;;;;;;;18.47;84.13;101058.06;5053889;28;20275;-70
2024/04/06 08:47:14;;;;;;;2.77;0.80;;;;;;;18.55;84.41;101048.91;5054259;28;20540;-70
2024/04/06 08:49:42;;;;;;;2.63;0.87;;;;;;;18.69;82.37;101054.91;5054462;28;20782;-69
2024/04/06 08:52:10;;;;;;;10.37;0.77;;;;;;;18.79;82.01;101048.13;5054016;28;20482;-70
2024/04/06 08:54:37;;;;;;;2.40;0.50;;;;;;;18.88;81.50;101054.28;5054132;28;20497;-69
2024/04/06 08:57:05;;;;;;;3.77;1.00;;;;;;;18.91;80.79;101061.84;5054258;28;20481;-69
2024/04/06 08:59:31;;;;;;;2.30;0.60;;;;;;;18.94;81.56;101076.81;5034597;28;20439;-69
2024/04/06 09:01:58;;;;;;;2.57;0.57;;;;;;;18.94;80.54;101069.38;5034691;28;20443;-70
2024/04/06 09:04:23;;;;;;;2.30;0.50;;;;;;;18.94;80.97;101077.59;5054089;28;20526;-69
2024/04/06 09:06:51;;;;;;;2.73;0.83;;;;;;;18.91;82.49;101067.34;5054180;28;20525;-69
2024/04/06 09:09:17;;;;;;;2.50;0.80;;;;;;;19.02;81.33;101062.16;5053939;28;20282;-70
2024/04/06 09:11:44;;;;;;;2.50;0.60;;;;;;;19.19;79.45;101061.88;5053680;28;20997;-69
2024/04/06 09:14:11;;;;;;;2.43;0.60;;;;;;;19.30;80.20;101052.03;5054130;28;20307;-69
2024/04/06 09:16:38;;;;;;;2.20;0.50;;;;;;;19.43;78.30;101052.75;5054156;28;20908;-69
2024/04/06 09:19:04;;;;;;;2.40;0.50;;;;;;;19.39;77.46;101060.91;5053534;28;20927;-71
2024/04/06 09:21:31;;;;;;;2.10;0.40;;;;;;;19.41;76.33;101060.56;5053913;28;20488;-70
2024/04/06 09:23:59;;;;;;;2.17;0.47;;;;;;;19.49;76.91;101056.06;5053904;28;20627;-69
2024/04/06 09:26:30;;;;;;;2.30;0.57;;;;;;;19.47;79.20;101052.84;5053898;28;20497;-70
2024/04/06 09:28:57;;;;;;;2.20;0.50;;;;;;;19.59;78.25;101052.81;5053318;28;20893;-69
2024/04/06 09:31:24;;;;;;;2.40;0.60;;;;;;;19.70;78.43;101059.44;5053255;28;20430;-69
2024/04/06 09:33:52;;;;;;;18.00;1.27;;;;;;;19.74;77.77;101043.81;5053225;28;20446;-69
2024/04/06 09:36:20;;;;;;;3.10;0.93;;;;;;;19.79;76.95;101040.84;5052791;28;20439;-69
2024/04/06 09:38:48;;;;;;;3.47;0.70;;;;;;;19.85;76.21;101047.66;5053861;28;20438;-70
2024/04/06 09:41:17;;;;;;;2.30;0.70;;;;;;;19.95;75.88;101054.59;5053574;28;20448;-69
2024/04/06 09:43:44;;;;;;;6.63;0.67;;;;;;;20.03;74.36;101050.09;5049657;28;20962;-69
2024/04/06 09:46:11;;;;;;;3.23;0.60;;;;;;;19.99;73.74;101046.44;5053040;28;20516;-69
2024/04/06 09:48:38;;;;;;;2.43;0.60;;;;;;;20.05;72.82;101051.31;5052458;28;20441;-69
2024/04/06 09:51:05;;;;;;;2.30;0.50;;;;;;;20.12;74.70;101053.47;5053149;28;20431;-69
2024/04/06 09:53:32;;;;;;;2.47;0.70;;;;;;;20.26;72.77;101053.81;5042036;28;21159;-68
2024/04/06 09:56:00;;;;;;;2.20;0.50;;;;;;;20.26;72.72;101059.31;5048177;28;20459;-71
2024/04/06 09:58:28;;;;;;;3.07;0.60;;;;;;;20.30;73.24;101051.94;5051392;28;20462;-69
2024/04/06 10:00:55;;;;;;;3.27;0.67;;;;;;;20.44;73.73;101058.97;5051366;28;20503;-69
2024/04/06 10:03:21;;;;;;;3.70;0.90;;;;;;;20.53;71.78;101063.16;5053335;28;20460;-70
2024/04/06 10:05:49;;;;;;;6.97;0.90;;;;;;;20.56;71.18;101062.44;5053625;28;20446;-70
2024/04/06 10:08:17;;;;;;;2.83;0.90;;;;;;;20.58;69.98;101057.38;5053498;28;20439;-70
2024/04/06 10:10:45;;;;;;;2.40;0.70;;;;;;;20.46;70.68;101056.66;5053046;28;20473;-70
2024/04/06 10:13:18;;;;;;;2.40;0.60;;;;;;;20.40;72.53;101067.91;5039105;28;20492;-70
2024/04/06 10:15:46;;;;;;;2.17;0.47;;;;;;;20.38;72.41;101050.97;5053791;28;20442;-70
2024/04/06 10:18:12;;;;;;;2.10;0.47;;;;;;;20.39;73.77;101057.28;5053430;28;20446;-70
2024/04/06 10:20:41;;;;;;;2.20;0.57;;;;;;;20.40;73.13;101047.84;5053430;28;20465;-70
2024/04/06 10:23:07;;;;;;;2.43;0.73;;;;;;;20.46;72.66;101051.94;5053209;28;20477;-70
2024/04/06 10:25:36;;;;;;;2.27;0.50;;;;;;;20.50;71.19;101046.56;5053656;28;20477;-70
2024/04/06 10:28:03;;;;;;;2.30;0.60;;;;;;;20.48;71.36;101046.91;5053066;28;20231;-71
2024/04/06 10:30:32;;;;;;;2.30;0.60;;;;;;;20.58;70.22;101056.56;5053056;28;20472;-70
2024/04/06 10:33:00;;;;;;;2.77;0.63;;;;;;;20.70;70.81;101055.66;5053151;28;20517;-70
2024/04/06 10:35:27;;;;;;;3.30;0.83;;;;;;;20.84;70.77;101061.50;5053225;28;20442;-70
2024/04/06 10:37:54;;;;;;;2.23;0.60;;;;;;;20.92;70.56;101053.03;5053232;28;20862;-69
2024/04/06 10:40:23;;;;;;;2.60;0.53;;;;;;;20.96;69.30;101044.06;5056293;28;20496;-69
2024/04/06 10:42:49;;;;;;;2.30;0.63;;;;;;;21.01;67.75;101043.78;5057477;28;20458;-69
2024/04/06 10:45:16;;;;;;;2.73;0.80;;;;;;;20.92;68.35;101036.50;5057368;28;20994;-69
2024/04/06 10:47:42;;;;;;;2.20;0.50;;;;;;;21.01;68.62;101032.75;5056730;28;20215;-69
2024/04/06 10:50:10;;;;;;;2.60;0.90;;;;;;;21.13;67.23;101030.66;5056794;28;20449;-70
2024/04/06 10:52:36;;;;;;;2.53;0.63;;;;;;;21.48;66.48;101024.31;5056440;28;20759;-69
2024/04/06 10:55:09;;;;;;;4.70;0.80;;;;;;;21.72;62.39;101034.22;5056886;28;20541;-69
2024/04/06 10:57:36;;;;;;;2.60;0.80;;;;;;;21.92;63.71;101034.97;5056919;28;20476;-70
2024/04/06 11:00:08;;;;;;;2.30;0.40;;;;;;;22.13;62.78;101043.66;5057013;28;20442;-69
2024/04/06 11:02:35;;;;;;;2.30;0.60;;;;;;;22.25;61.11;101033.56;5056404;28;20455;-69
2024/04/06 11:05:03;;;;;;;4.73;0.83;;;;;;;22.40;61.47;101038.16;5056844;28;20454;-69
2024/04/06 11:07:30;;;;;;;2.20;0.50;;;;;;;22.45;59.70;101031.53;5056829;28;20430;-70
2024/04/06 11:09:57;;;;;;;2.10;0.40;;;;;;;22.32;60.83;101041.97;5057107;28;20449;-70
2024/04/06 11:12:26;;;;;;;2.27;0.60;;;;;;;22.55;60.38;101039.19;5056565;28;20492;-69
2024/04/06 11:14:53;;;;;;;2.27;0.60;;;;;;;22.67;57.50;101048.06;5056757;28;20446;-70
2024/04/06 11:17:18;;;;;;;2.87;0.60;;;;;;;22.82;59.08;101038.00;5056576;28;20530;-70
2024/04/06 11:19:45;;;;;;;4.83;0.60;;;;;;;23.21;55.88;101045.25;5056322;28;20489;-70